sensor_id;sensor_type;location;lat;lon;timestamp;temperature;humidity
8666;DHT22;4370;48.916;8.380;2023-07-09T00:02:15;18.20;99.90
8666;DHT22;4370;48.916;8.380;2023-07-09T00:07:26;18.20;99.90
8666;DHT22;4370;48.916;8.380;2023-07-09T00:09:53;18.40;99.90
8666;DHT22;4370;48.916;8.380;2023-07-09T00:14:45;18.10;99.90
8666;DHT22;4370;48.916;8.380;2023-07-09T00:17:31;18.20;99.90
8666;DHT22;4370;48.916;8.380;2023-07-09T00:24:57;18.00;99.90
8666;DHT22;4370;48.916;8.380;2023-07-09T00:27:25;18.10;99.90
8666;DHT22;4370;48.916;8.380;2023-07-09T00:32:21;18.10;99.90
8666;DHT22;4370;48.916;8.380;2023-07-09T00:34:47;18.10;99.90
8666;DHT22;4370;48.916;8.380;2023-07-09T00:37:20;18.30;99.90
8666;DHT22;4370;48.916;8.380;2023-07-09T00:39:49;18.10;99.90
8666;DHT22;4370;48.916;8.380;2023-07-09T00:42:17;17.60;99.90
8666;DHT22;4370;48.916;8.380;2023-07-09T00:44:48;18.30;99.90
8666;DHT22;4370;48.916;8.380;2023-07-09T00:47:23;17.90;99.90
8666;DHT22;4370;48.916;8.380;2023-07-09T00:50:04;17.30;99.90
8666;DHT22;4370;48.916;8.380;2023-07-09T00:52:52;17.90;99.90
8666;DHT22;4370;48.916;8.380;2023-07-09T00:55:24;17.60;99.90
8666;DHT22;4370;48.916;8.380;2023-07-09T00:57:53;17.80;99.90
8666;DHT22;4370;48.916;8.380;2023-07-09T01:00:30;18.00;99.90
8666;DHT22;4370;48.916;8.380;2023-07-09T01:02:56;17.80;99.90
8666;DHT22;4370;48.916;8.380;2023-07-09T01:10:16;17.60;99.90
8666;DHT22;4370;48.916;8.380;2023-07-09T01:12:44;17.60;99.90
8666;DHT22;4370;48.916;8.380;2023-07-09T01:20:03;17.70;99.90
8666;DHT22;4370;48.916;8.380;2023-07-09T01:22:28;17.20;99.90
8666;DHT22;4370;48.916;8.380;2023-07-09T01:27:29;17.50;99.90
8666;DHT22;4370;48.916;8.380;2023-07-09T01:29:56;17.50;99.90
8666;DHT22;4370;48.916;8.380;2023-07-09T01:32:24;17.40;99.90
8666;DHT22;4370;48.916;8.380;2023-07-09T01:35:03;17.40;99.90
8666;DHT22;4370;48.916;8.380;2023-07-09T01:37:35;17.50;99.90
8666;DHT22;4370;48.916;8.380;2023-07-09T01:42:27;17.30;99.90
8666;DHT22;4370;48.916;8.380;2023-07-09T01:44:57;17.30;99.90
8666;DHT22;4370;48.916;8.380;2023-07-09T01:49:51;17.30;99.90
8666;DHT22;4370;48.916;8.380;2023-07-09T01:52:28;17.30;99.90
8666;DHT22;4370;48.916;8.380;2023-07-09T01:54:55;17.10;99.90
8666;DHT22;4370;48.916;8.380;2023-07-09T01:57:23;17.10;99.90
8666;DHT22;4370;48.916;8.380;2023-07-09T01:59:53;19.20;99.90
8666;DHT22;4370;48.916;8.380;2023-07-09T02:04:49;17.10;99.90
8666;DHT22;4370;48.916;8.380;2023-07-09T02:07:18;17.70;99.90
8666;DHT22;4370;48.916;8.380;2023-07-09T02:12:10;17.00;99.90
8666;DHT22;4370;48.916;8.380;2023-07-09T02:14:37;17.00;99.90
8666;DHT22;4370;48.916;8.380;2023-07-09T02:17:03;16.90;99.90
8666;DHT22;4370;48.916;8.380;2023-07-09T02:19:31;17.00;99.90
8666;DHT22;4370;48.916;8.380;2023-07-09T02:30:11;16.80;99.90
8666;DHT22;4370;48.916;8.380;2023-07-09T02:35:05;16.40;99.90
8666;DHT22;4370;48.916;8.380;2023-07-09T02:37:31;16.90;99.90
8666;DHT22;4370;48.916;8.380;2023-07-09T02:47:17;16.80;99.90
8666;DHT22;4370;48.916;8.380;2023-07-09T02:54:35;16.60;99.90
8666;DHT22;4370;48.916;8.380;2023-07-09T02:57:01;16.50;99.90
8666;DHT22;4370;48.916;8.380;2023-07-09T03:01:55;16.30;99.90
8666;DHT22;4370;48.916;8.380;2023-07-09T03:06:47;16.60;99.90
8666;DHT22;4370;48.916;8.380;2023-07-09T03:09:13;16.60;99.90
8666;DHT22;4370;48.916;8.380;2023-07-09T03:14:04;17.00;99.90
8666;DHT22;4370;48.916;8.380;2023-07-09T03:16:32;16.30;99.90
8666;DHT22;4370;48.916;8.380;2023-07-09T03:18:59;16.30;99.90
8666;DHT22;4370;48.916;8.380;2023-07-09T03:21:26;16.30;99.90
8666;DHT22;4370;48.916;8.380;2023-07-09T03:23:53;16.30;99.90
8666;DHT22;4370;48.916;8.380;2023-07-09T03:36:03;16.40;99.90
8666;DHT22;4370;48.916;8.380;2023-07-09T03:38:30;16.20;99.90
8666;DHT22;4370;48.916;8.380;2023-07-09T03:40:56;16.90;99.90
8666;DHT22;4370;48.916;8.380;2023-07-09T03:43:23;16.40;99.90
8666;DHT22;4370;48.916;8.380;2023-07-09T03:45:49;16.00;99.90
8666;DHT22;4370;48.916;8.380;2023-07-09T03:48:16;15.90;99.90
8666;DHT22;4370;48.916;8.380;2023-07-09T03:50:44;16.10;99.90
8666;DHT22;4370;48.916;8.380;2023-07-09T03:55:38;16.10;99.90
8666;DHT22;4370;48.916;8.380;2023-07-09T04:00:30;16.10;99.90
8666;DHT22;4370;48.916;8.380;2023-07-09T04:02:56;16.10;99.90
8666;DHT22;4370;48.916;8.380;2023-07-09T04:05:23;16.20;99.90
8666;DHT22;4370;48.916;8.380;2023-07-09T04:07:49;16.00;99.90
8666;DHT22;4370;48.916;8.380;2023-07-09T04:10:15;16.10;99.90
8666;DHT22;4370;48.916;8.380;2023-07-09T04:12:41;16.60;99.90
8666;DHT22;4370;48.916;8.380;2023-07-09T04:15:07;16.00;99.90
8666;DHT22;4370;48.916;8.380;2023-07-09T04:17:33;15.90;99.90
8666;DHT22;4370;48.916;8.380;2023-07-09T04:22:29;16.50;99.90
8666;DHT22;4370;48.916;8.380;2023-07-09T04:24:56;16.20;99.90
8666;DHT22;4370;48.916;8.380;2023-07-09T04:27:21;16.50;99.90
8666;DHT22;4370;48.916;8.380;2023-07-09T04:29:47;17.00;99.90
8666;DHT22;4370;48.916;8.380;2023-07-09T04:32:16;16.70;99.90
8666;DHT22;4370;48.916;8.380;2023-07-09T04:37:10;17.80;99.90
8666;DHT22;4370;48.916;8.380;2023-07-09T04:44:30;17.10;99.90
8666;DHT22;4370;48.916;8.380;2023-07-09T04:46:56;17.30;99.90
8666;DHT22;4370;48.916;8.380;2023-07-09T05:01:34;18.90;99.90
8666;DHT22;4370;48.916;8.380;2023-07-09T05:04:01;18.90;99.90
8666;DHT22;4370;48.916;8.380;2023-07-09T05:08:52;19.20;99.90
8666;DHT22;4370;48.916;8.380;2023-07-09T05:11:18;19.50;99.90
8666;DHT22;4370;48.916;8.380;2023-07-09T05:18:37;19.90;99.90
8666;DHT22;4370;48.916;8.380;2023-07-09T05:21:03;20.40;99.90
8666;DHT22;4370;48.916;8.380;2023-07-09T05:23:28;20.50;99.90
8666;DHT22;4370;48.916;8.380;2023-07-09T05:25:59;20.80;99.90
8666;DHT22;4370;48.916;8.380;2023-07-09T05:28:25;21.10;99.90
8666;DHT22;4370;48.916;8.380;2023-07-09T05:30:51;21.30;99.90
8666;DHT22;4370;48.916;8.380;2023-07-09T05:33:17;21.50;99.90
8666;DHT22;4370;48.916;8.380;2023-07-09T05:38:14;22.00;99.90
8666;DHT22;4370;48.916;8.380;2023-07-09T05:47:59;22.90;99.90
8666;DHT22;4370;48.916;8.380;2023-07-09T05:50:25;23.10;99.90
8666;DHT22;4370;48.916;8.380;2023-07-09T05:55:18;23.50;99.90
8666;DHT22;4370;48.916;8.380;2023-07-09T06:00:10;23.90;99.90
8666;DHT22;4370;48.916;8.380;2023-07-09T06:02:37;24.10;99.90
8666;DHT22;4370;48.916;8.380;2023-07-09T06:05:03;24.70;99.90
8666;DHT22;4370;48.916;8.380;2023-07-09T06:07:29;25.60;99.90
8666;DHT22;4370;48.916;8.380;2023-07-09T06:12:22;29.90;97.20
8666;DHT22;4370;48.916;8.380;2023-07-09T06:19:43;34.70;76.90
8666;DHT22;4370;48.916;8.380;2023-07-09T06:24:36;37.60;42.60
8666;DHT22;4370;48.916;8.380;2023-07-09T06:27:01;38.20;52.70
8666;DHT22;4370;48.916;8.380;2023-07-09T06:51:22;44.60;52.60
8666;DHT22;4370;48.916;8.380;2023-07-09T06:56:15;45.30;49.80
8666;DHT22;4370;48.916;8.380;2023-07-09T07:03:36;45.60;49.80
8666;DHT22;4370;48.916;8.380;2023-07-09T07:06:02;45.90;50.90
8666;DHT22;4370;48.916;8.380;2023-07-09T07:08:28;45.50;47.90
8666;DHT22;4370;48.916;8.380;2023-07-09T07:10:59;46.20;25.70
8666;DHT22;4370;48.916;8.380;2023-07-09T07:13:40;46.50;25.70
8666;DHT22;4370;48.916;8.380;2023-07-09T07:16:08;46.70;25.00
8666;DHT22;4370;48.916;8.380;2023-07-09T07:18:34;46.70;43.40
8666;DHT22;4370;48.916;8.380;2023-07-09T07:21:02;46.80;43.50
8666;DHT22;4370;48.916;8.380;2023-07-09T07:23:29;47.70;25.50
8666;DHT22;4370;48.916;8.380;2023-07-09T07:25:55;47.70;46.70
8666;DHT22;4370;48.916;8.380;2023-07-09T07:28:21;47.40;46.00
8666;DHT22;4370;48.916;8.380;2023-07-09T07:31:00;47.40;24.10
8666;DHT22;4370;48.916;8.380;2023-07-09T07:35:52;46.60;44.50
8666;DHT22;4370;48.916;8.380;2023-07-09T07:40:44;47.40;24.50
8666;DHT22;4370;48.916;8.380;2023-07-09T07:45:39;47.60;46.20
8666;DHT22;4370;48.916;8.380;2023-07-09T07:52:58;48.50;45.50
8666;DHT22;4370;48.916;8.380;2023-07-09T08:00:16;48.10;44.20
8666;DHT22;4370;48.916;8.380;2023-07-09T08:02:42;48.40;44.00
8666;DHT22;4370;48.916;8.380;2023-07-09T08:05:07;48.00;44.00
8666;DHT22;4370;48.916;8.380;2023-07-09T08:07:33;47.80;44.50
8666;DHT22;4370;48.916;8.380;2023-07-09T08:17:16;47.90;44.50
8666;DHT22;4370;48.916;8.380;2023-07-09T08:19:52;47.30;23.80
8666;DHT22;4370;48.916;8.380;2023-07-09T08:22:19;47.40;29.10
8666;DHT22;4370;48.916;8.380;2023-07-09T08:24:46;46.30;34.50
8666;DHT22;4370;48.916;8.380;2023-07-09T08:27:12;45.50;45.30
8666;DHT22;4370;48.916;8.380;2023-07-09T08:32:06;43.10;34.90
8666;DHT22;4370;48.916;8.380;2023-07-09T08:34:32;42.20;27.50
8666;DHT22;4370;48.916;8.380;2023-07-09T08:36:59;41.20;50.00
8666;DHT22;4370;48.916;8.380;2023-07-09T08:39:25;39.30;43.70
8666;DHT22;4370;48.916;8.380;2023-07-09T08:41:54;38.30;55.80
8666;DHT22;4370;48.916;8.380;2023-07-09T08:47:36;37.20;57.30
8666;DHT22;4370;48.916;8.380;2023-07-09T08:50:18;36.70;34.30
8666;DHT22;4370;48.916;8.380;2023-07-09T08:52:48;36.50;35.10
8666;DHT22;4370;48.916;8.380;2023-07-09T08:55:20;35.70;58.80
8666;DHT22;4370;48.916;8.380;2023-07-09T08:57:52;36.10;59.00
8666;DHT22;4370;48.916;8.380;2023-07-09T09:02:59;35.00;36.40
8666;DHT22;4370;48.916;8.380;2023-07-09T09:10:29;34.70;63.30
8666;DHT22;4370;48.916;8.380;2023-07-09T09:13:16;34.60;36.70
8666;DHT22;4370;48.916;8.380;2023-07-09T09:15:46;34.50;37.10
8666;DHT22;4370;48.916;8.380;2023-07-09T09:18:24;34.80;63.00
8666;DHT22;4370;48.916;8.380;2023-07-09T09:23:40;34.30;37.20
8666;DHT22;4370;48.916;8.380;2023-07-09T09:26:28;34.20;37.50
8666;DHT22;4370;48.916;8.380;2023-07-09T09:28:56;33.80;62.50
8666;DHT22;4370;48.916;8.380;2023-07-09T09:31:24;34.00;37.10
8666;DHT22;4370;48.916;8.380;2023-07-09T09:36:24;34.20;62.60
8666;DHT22;4370;48.916;8.380;2023-07-09T09:38:50;33.70;61.70
8666;DHT22;4370;48.916;8.380;2023-07-09T09:41:24;33.90;37.50
8666;DHT22;4370;48.916;8.380;2023-07-09T09:43:53;33.90;37.40
8666;DHT22;4370;48.916;8.380;2023-07-09T09:46:24;34.10;62.10
8666;DHT22;4370;48.916;8.380;2023-07-09T09:48:53;33.80;57.00
8666;DHT22;4370;48.916;8.380;2023-07-09T09:51:19;34.40;62.20
8666;DHT22;4370;48.916;8.380;2023-07-09T09:53:50;33.90;56.10
8666;DHT22;4370;48.916;8.380;2023-07-09T09:56:36;33.70;62.80
8666;DHT22;4370;48.916;8.380;2023-07-09T09:59:03;33.90;38.30
8666;DHT22;4370;48.916;8.380;2023-07-09T10:01:34;33.50;62.50
8666;DHT22;4370;48.916;8.380;2023-07-09T10:04:01;33.90;38.80
8666;DHT22;4370;48.916;8.380;2023-07-09T10:06:35;33.90;48.50
8666;DHT22;4370;48.916;8.380;2023-07-09T10:09:08;33.90;37.90
8666;DHT22;4370;48.916;8.380;2023-07-09T10:11:47;33.90;38.40
8666;DHT22;4370;48.916;8.380;2023-07-09T10:16:55;34.30;61.70
8666;DHT22;4370;48.916;8.380;2023-07-09T10:19:47;34.10;61.90
8666;DHT22;4370;48.916;8.380;2023-07-09T10:22:22;33.70;58.00
8666;DHT22;4370;48.916;8.380;2023-07-09T10:25:15;33.70;60.90
8666;DHT22;4370;48.916;8.380;2023-07-09T10:30:50;33.90;37.50
8666;DHT22;4370;48.916;8.380;2023-07-09T10:33:31;33.80;61.10
8666;DHT22;4370;48.916;8.380;2023-07-09T10:36:14;33.90;36.70
8666;DHT22;4370;48.916;8.380;2023-07-09T10:41:16;33.90;37.30
8666;DHT22;4370;48.916;8.380;2023-07-09T10:43:50;33.90;60.50
8666;DHT22;4370;48.916;8.380;2023-07-09T10:46:28;34.40;45.50
8666;DHT22;4370;48.916;8.380;2023-07-09T10:48:56;33.90;36.10
8666;DHT22;4370;48.916;8.380;2023-07-09T10:51:29;34.30;43.80
8666;DHT22;4370;48.916;8.380;2023-07-09T10:54:15;34.10;35.40
8666;DHT22;4370;48.916;8.380;2023-07-09T10:56:45;34.10;34.50
8666;DHT22;4370;48.916;8.380;2023-07-09T10:59:29;34.20;33.70
8666;DHT22;4370;48.916;8.380;2023-07-09T11:02:26;34.20;33.50
8666;DHT22;4370;48.916;8.380;2023-07-09T11:04:58;34.30;33.00
8666;DHT22;4370;48.916;8.380;2023-07-09T11:10:14;34.60;57.10
8666;DHT22;4370;48.916;8.380;2023-07-09T11:12:50;34.90;57.80
8666;DHT22;4370;48.916;8.380;2023-07-09T11:15:27;34.30;54.00
8666;DHT22;4370;48.916;8.380;2023-07-09T11:17:57;34.50;32.20
8666;DHT22;4370;48.916;8.380;2023-07-09T11:20:35;34.30;34.00
8666;DHT22;4370;48.916;8.380;2023-07-09T11:23:22;34.10;54.40
8666;DHT22;4370;48.916;8.380;2023-07-09T11:26:02;34.20;35.40
8666;DHT22;4370;48.916;8.380;2023-07-09T11:28:35;34.70;55.80
8666;DHT22;4370;48.916;8.380;2023-07-09T11:31:14;34.60;31.30
8666;DHT22;4370;48.916;8.380;2023-07-09T11:33:56;34.70;30.40
8666;DHT22;4370;48.916;8.380;2023-07-09T11:36:26;34.70;45.00
8666;DHT22;4370;48.916;8.380;2023-07-09T11:38:52;35.00;50.90
8666;DHT22;4370;48.916;8.380;2023-07-09T11:41:39;34.80;31.20
8666;DHT22;4370;48.916;8.380;2023-07-09T11:46:35;34.90;30.30
8666;DHT22;4370;48.916;8.380;2023-07-09T11:49:02;34.80;30.10
8666;DHT22;4370;48.916;8.380;2023-07-09T11:51:44;34.60;49.70
8666;DHT22;4370;48.916;8.380;2023-07-09T11:54:14;34.70;32.60
8666;DHT22;4370;48.916;8.380;2023-07-09T11:59:08;34.80;54.60
8666;DHT22;4370;48.916;8.380;2023-07-09T12:01:45;35.40;30.60
8666;DHT22;4370;48.916;8.380;2023-07-09T12:04:14;36.00;53.50
8666;DHT22;4370;48.916;8.380;2023-07-09T12:06:42;36.00;35.20
8666;DHT22;4370;48.916;8.380;2023-07-09T12:09:16;35.50;29.30
8666;DHT22;4370;48.916;8.380;2023-07-09T12:11:48;35.00;52.40
8666;DHT22;4370;48.916;8.380;2023-07-09T12:14:16;35.60;29.40
8666;DHT22;4370;48.916;8.380;2023-07-09T12:16:44;35.30;54.60
8666;DHT22;4370;48.916;8.380;2023-07-09T12:19:14;36.00;55.60
8666;DHT22;4370;48.916;8.380;2023-07-09T12:21:43;36.00;33.90
8666;DHT22;4370;48.916;8.380;2023-07-09T12:24:24;36.20;32.80
8666;DHT22;4370;48.916;8.380;2023-07-09T12:26:58;36.10;31.50
8666;DHT22;4370;48.916;8.380;2023-07-09T12:29:28;36.20;31.10
8666;DHT22;4370;48.916;8.380;2023-07-09T12:31:58;36.90;54.20
8666;DHT22;4370;48.916;8.380;2023-07-09T12:34:24;36.30;30.80
8666;DHT22;4370;48.916;8.380;2023-07-09T12:36:53;36.40;31.20
8666;DHT22;4370;48.916;8.380;2023-07-09T12:39:28;36.10;43.00
8666;DHT22;4370;48.916;8.380;2023-07-09T12:41:56;36.90;39.10
8666;DHT22;4370;48.916;8.380;2023-07-09T12:44:23;36.30;54.40
8666;DHT22;4370;48.916;8.380;2023-07-09T12:46:51;36.40;30.90
8666;DHT22;4370;48.916;8.380;2023-07-09T12:49:29;36.60;34.40
8666;DHT22;4370;48.916;8.380;2023-07-09T12:54:24;35.90;46.00
8666;DHT22;4370;48.916;8.380;2023-07-09T12:56:54;36.50;29.00
8666;DHT22;4370;48.916;8.380;2023-07-09T12:59:24;36.50;52.60
8666;DHT22;4370;48.916;8.380;2023-07-09T13:01:54;36.40;28.90
8666;DHT22;4370;48.916;8.380;2023-07-09T13:06:47;36.60;29.00
8666;DHT22;4370;48.916;8.380;2023-07-09T13:09:19;36.10;41.70
8666;DHT22;4370;48.916;8.380;2023-07-09T13:11:46;36.40;36.50
8666;DHT22;4370;48.916;8.380;2023-07-09T13:14:26;36.80;28.00
8666;DHT22;4370;48.916;8.380;2023-07-09T13:16:53;38.80;29.90
8666;DHT22;4370;48.916;8.380;2023-07-09T13:24:22;37.00;28.70
8666;DHT22;4370;48.916;8.380;2023-07-09T13:26:49;37.60;51.80
8666;DHT22;4370;48.916;8.380;2023-07-09T13:29:16;36.70;51.10
8666;DHT22;4370;48.916;8.380;2023-07-09T13:31:43;37.30;28.60
8666;DHT22;4370;48.916;8.380;2023-07-09T13:34:30;37.20;32.10
8666;DHT22;4370;48.916;8.380;2023-07-09T13:36:58;38.00;38.20
8666;DHT22;4370;48.916;8.380;2023-07-09T13:41:51;37.70;28.90
8666;DHT22;4370;48.916;8.380;2023-07-09T13:44:29;37.90;52.90
8666;DHT22;4370;48.916;8.380;2023-07-09T13:49:24;37.90;28.60
8666;DHT22;4370;48.916;8.380;2023-07-09T13:51:52;38.00;28.60
8666;DHT22;4370;48.916;8.380;2023-07-09T13:54:32;37.60;53.30
8666;DHT22;4370;48.916;8.380;2023-07-09T13:57:05;38.00;29.50
8666;DHT22;4370;48.916;8.380;2023-07-09T13:59:31;38.50;49.70
8666;DHT22;4370;48.916;8.380;2023-07-09T14:01:58;38.30;37.00
8666;DHT22;4370;48.916;8.380;2023-07-09T14:04:26;37.80;28.60
8666;DHT22;4370;48.916;8.380;2023-07-09T14:06:52;37.60;33.70
8666;DHT22;4370;48.916;8.380;2023-07-09T14:09:18;38.10;51.30
8666;DHT22;4370;48.916;8.380;2023-07-09T14:11:49;38.30;28.80
8666;DHT22;4370;48.916;8.380;2023-07-09T14:14:21;38.30;36.70
8666;DHT22;4370;48.916;8.380;2023-07-09T14:16:50;38.10;51.50
8666;DHT22;4370;48.916;8.380;2023-07-09T14:19:18;37.80;29.10
8666;DHT22;4370;48.916;8.380;2023-07-09T14:21:44;38.10;28.30
8666;DHT22;4370;48.916;8.380;2023-07-09T14:24:24;38.60;52.40
8666;DHT22;4370;48.916;8.380;2023-07-09T14:26:50;38.00;50.40
8666;DHT22;4370;48.916;8.380;2023-07-09T14:31:44;38.10;49.90
8666;DHT22;4370;48.916;8.380;2023-07-09T14:39:09;37.50;49.80
8666;DHT22;4370;48.916;8.380;2023-07-09T14:41:36;37.30;50.60
8666;DHT22;4370;48.916;8.380;2023-07-09T14:44:02;37.30;51.10
8666;DHT22;4370;48.916;8.380;2023-07-09T14:48:54;37.90;52.20
8666;DHT22;4370;48.916;8.380;2023-07-09T14:51:20;36.60;50.70
8666;DHT22;4370;48.916;8.380;2023-07-09T14:56:14;36.60;28.70
8666;DHT22;4370;48.916;8.380;2023-07-09T15:01:13;36.40;28.60
8666;DHT22;4370;48.916;8.380;2023-07-09T15:08:30;35.60;40.20
8666;DHT22;4370;48.916;8.380;2023-07-09T15:10:56;36.20;46.40
8666;DHT22;4370;48.916;8.380;2023-07-09T15:13:35;36.00;29.10
8666;DHT22;4370;48.916;8.380;2023-07-09T15:16:03;35.40;53.00
8666;DHT22;4370;48.916;8.380;2023-07-09T15:18:30;36.10;45.20
8666;DHT22;4370;48.916;8.380;2023-07-09T15:21:00;35.50;53.80
8666;DHT22;4370;48.916;8.380;2023-07-09T15:23:27;35.90;42.10
8666;DHT22;4370;48.916;8.380;2023-07-09T15:25:53;36.60;35.80
8666;DHT22;4370;48.916;8.380;2023-07-09T15:30:46;36.00;29.90
8666;DHT22;4370;48.916;8.380;2023-07-09T15:33:19;35.90;31.00
8666;DHT22;4370;48.916;8.380;2023-07-09T15:35:46;35.80;31.20
8666;DHT22;4370;48.916;8.380;2023-07-09T15:40:46;35.30;56.60
8666;DHT22;4370;48.916;8.380;2023-07-09T15:43:13;35.30;54.50
8666;DHT22;4370;48.916;8.380;2023-07-09T15:45:44;35.70;57.60
8666;DHT22;4370;48.916;8.380;2023-07-09T15:50:47;35.60;61.50
8666;DHT22;4370;48.916;8.380;2023-07-09T15:55:40;35.00;61.70
8666;DHT22;4370;48.916;8.380;2023-07-09T15:58:11;34.80;38.30
8666;DHT22;4370;48.916;8.380;2023-07-09T16:00:39;34.40;61.10
8666;DHT22;4370;48.916;8.380;2023-07-09T16:07:58;34.30;41.00
8666;DHT22;4370;48.916;8.380;2023-07-09T16:10:26;34.50;38.30
8666;DHT22;4370;48.916;8.380;2023-07-09T16:15:21;34.40;39.40
8666;DHT22;4370;48.916;8.380;2023-07-09T16:17:50;34.30;40.30
8666;DHT22;4370;48.916;8.380;2023-07-09T16:20:25;34.20;40.30
8666;DHT22;4370;48.916;8.380;2023-07-09T16:22:54;34.10;39.20
8666;DHT22;4370;48.916;8.380;2023-07-09T16:25:33;34.50;63.30
8666;DHT22;4370;48.916;8.380;2023-07-09T16:27:59;33.80;54.60
8666;DHT22;4370;48.916;8.380;2023-07-09T16:30:27;34.00;39.50
8666;DHT22;4370;48.916;8.380;2023-07-09T16:35:28;33.90;53.10
8666;DHT22;4370;48.916;8.380;2023-07-09T16:37:54;33.80;57.00
8666;DHT22;4370;48.916;8.380;2023-07-09T16:40:27;33.70;55.40
8666;DHT22;4370;48.916;8.380;2023-07-09T16:42:54;33.80;51.20
8666;DHT22;4370;48.916;8.380;2023-07-09T16:45:23;34.10;41.20
8666;DHT22;4370;48.916;8.380;2023-07-09T16:47:49;34.20;65.40
8666;DHT22;4370;48.916;8.380;2023-07-09T16:50:23;33.80;65.80
8666;DHT22;4370;48.916;8.380;2023-07-09T16:52:51;33.70;43.10
8666;DHT22;4370;48.916;8.380;2023-07-09T16:55:21;33.20;46.80
8666;DHT22;4370;48.916;8.380;2023-07-09T16:57:55;33.40;67.70
8666;DHT22;4370;48.916;8.380;2023-07-09T17:00:25;33.60;46.80
8666;DHT22;4370;48.916;8.380;2023-07-09T17:05:17;33.40;71.20
8666;DHT22;4370;48.916;8.380;2023-07-09T17:10:13;32.50;73.20
8666;DHT22;4370;48.916;8.380;2023-07-09T17:12:39;32.50;73.50
8666;DHT22;4370;48.916;8.380;2023-07-09T17:15:30;32.30;49.20
8666;DHT22;4370;48.916;8.380;2023-07-09T17:17:56;32.10;48.60
8666;DHT22;4370;48.916;8.380;2023-07-09T17:20:24;31.80;68.70
8666;DHT22;4370;48.916;8.380;2023-07-09T17:22:52;31.80;73.50
8666;DHT22;4370;48.916;8.380;2023-07-09T17:25:35;32.10;50.60
8666;DHT22;4370;48.916;8.380;2023-07-09T17:28:18;31.70;50.90
8666;DHT22;4370;48.916;8.380;2023-07-09T17:30:45;32.00;58.50
8666;DHT22;4370;48.916;8.380;2023-07-09T17:33:11;31.50;76.00
8666;DHT22;4370;48.916;8.380;2023-07-09T17:35:38;31.50;76.30
8666;DHT22;4370;48.916;8.380;2023-07-09T17:38:05;31.60;77.10
8666;DHT22;4370;48.916;8.380;2023-07-09T17:40:35;31.50;63.30
8666;DHT22;4370;48.916;8.380;2023-07-09T17:43:03;31.50;77.40
8666;DHT22;4370;48.916;8.380;2023-07-09T17:45:35;30.90;77.30
8666;DHT22;4370;48.916;8.380;2023-07-09T17:48:02;31.10;53.00
8666;DHT22;4370;48.916;8.380;2023-07-09T17:55:22;30.90;53.40
8666;DHT22;4370;48.916;8.380;2023-07-09T17:57:51;30.50;77.90
8666;DHT22;4370;48.916;8.380;2023-07-09T18:00:24;30.30;70.20
8666;DHT22;4370;48.916;8.380;2023-07-09T18:02:59;30.70;74.20
8666;DHT22;4370;48.916;8.380;2023-07-09T18:05:29;30.70;75.60
8666;DHT22;4370;48.916;8.380;2023-07-09T18:10:23;30.40;55.20
8666;DHT22;4370;48.916;8.380;2023-07-09T18:12:49;30.90;73.70
8666;DHT22;4370;48.916;8.380;2023-07-09T18:15:22;30.90;63.00
8666;DHT22;4370;48.916;8.380;2023-07-09T18:20:17;30.70;64.90
8666;DHT22;4370;48.916;8.380;2023-07-09T18:25:10;30.00;77.30
8666;DHT22;4370;48.916;8.380;2023-07-09T18:27:40;29.40;76.60
8666;DHT22;4370;48.916;8.380;2023-07-09T18:30:15;29.80;52.30
8666;DHT22;4370;48.916;8.380;2023-07-09T18:32:45;29.60;52.70
8666;DHT22;4370;48.916;8.380;2023-07-09T18:35:29;29.80;77.30
8666;DHT22;4370;48.916;8.380;2023-07-09T18:37:57;29.30;52.40
8666;DHT22;4370;48.916;8.380;2023-07-09T18:40:24;29.30;52.40
8666;DHT22;4370;48.916;8.380;2023-07-09T18:42:50;29.00;76.10
8666;DHT22;4370;48.916;8.380;2023-07-09T18:45:17;29.00;56.00
8666;DHT22;4370;48.916;8.380;2023-07-09T18:47:44;28.90;51.80
8666;DHT22;4370;48.916;8.380;2023-07-09T18:50:16;28.40;53.50
8666;DHT22;4370;48.916;8.380;2023-07-09T18:55:17;28.60;52.40
8666;DHT22;4370;48.916;8.380;2023-07-09T19:00:12;28.30;52.60
8666;DHT22;4370;48.916;8.380;2023-07-09T19:02:41;28.30;52.50
8666;DHT22;4370;48.916;8.380;2023-07-09T19:05:19;28.10;51.90
8666;DHT22;4370;48.916;8.380;2023-07-09T19:07:47;28.00;77.70
8666;DHT22;4370;48.916;8.380;2023-07-09T19:10:21;27.90;52.80
8666;DHT22;4370;48.916;8.380;2023-07-09T19:12:49;27.80;59.40
8666;DHT22;4370;48.916;8.380;2023-07-09T19:15:15;27.70;53.30
8666;DHT22;4370;48.916;8.380;2023-07-09T19:17:43;27.60;78.90
8666;DHT22;4370;48.916;8.380;2023-07-09T19:20:23;27.60;79.30
8666;DHT22;4370;48.916;8.380;2023-07-09T19:22:50;27.80;79.30
8666;DHT22;4370;48.916;8.380;2023-07-09T19:25:25;27.20;64.80
8666;DHT22;4370;48.916;8.380;2023-07-09T19:27:51;27.20;64.30
8666;DHT22;4370;48.916;8.380;2023-07-09T19:30:20;27.10;81.10
8666;DHT22;4370;48.916;8.380;2023-07-09T19:32:54;26.80;55.90
8666;DHT22;4370;48.916;8.380;2023-07-09T19:35:23;26.70;56.50
8666;DHT22;4370;48.916;8.380;2023-07-09T19:40:21;26.40;57.50
8666;DHT22;4370;48.916;8.380;2023-07-09T19:42:49;25.80;58.90
8666;DHT22;4370;48.916;8.380;2023-07-09T19:45:19;26.10;69.90
8666;DHT22;4370;48.916;8.380;2023-07-09T19:47:47;26.00;57.90
8666;DHT22;4370;48.916;8.380;2023-07-09T19:50:31;25.80;65.30
8666;DHT22;4370;48.916;8.380;2023-07-09T19:52:59;25.70;58.60
8666;DHT22;4370;48.916;8.380;2023-07-09T19:55:27;25.60;58.90
8666;DHT22;4370;48.916;8.380;2023-07-09T19:57:55;25.50;59.40
8666;DHT22;4370;48.916;8.380;2023-07-09T20:00:22;25.30;60.00
8666;DHT22;4370;48.916;8.380;2023-07-09T20:02:48;25.10;60.70
8666;DHT22;4370;48.916;8.380;2023-07-09T20:05:22;24.90;87.20
8666;DHT22;4370;48.916;8.380;2023-07-09T20:15:17;24.60;64.30
8666;DHT22;4370;48.916;8.380;2023-07-09T20:20:10;24.50;63.30
8666;DHT22;4370;48.916;8.380;2023-07-09T20:25:24;24.10;80.70
8666;DHT22;4370;48.916;8.380;2023-07-09T20:27:51;24.10;64.40
8666;DHT22;4370;48.916;8.380;2023-07-09T20:30:18;24.00;64.90
8666;DHT22;4370;48.916;8.380;2023-07-09T20:32:45;23.90;65.60
8666;DHT22;4370;48.916;8.380;2023-07-09T20:35:18;23.70;70.40
8666;DHT22;4370;48.916;8.380;2023-07-09T20:37:45;23.70;91.00
8666;DHT22;4370;48.916;8.380;2023-07-09T20:40:13;23.70;67.10
8666;DHT22;4370;48.916;8.380;2023-07-09T20:42:39;23.60;89.60
8666;DHT22;4370;48.916;8.380;2023-07-09T20:45:23;23.50;91.80
8666;DHT22;4370;48.916;8.380;2023-07-09T20:47:51;23.00;71.80
8666;DHT22;4370;48.916;8.380;2023-07-09T20:50:21;23.30;81.70
8666;DHT22;4370;48.916;8.380;2023-07-09T20:55:18;23.20;72.70
8666;DHT22;4370;48.916;8.380;2023-07-09T20:57:45;22.90;93.90
8666;DHT22;4370;48.916;8.380;2023-07-09T21:00:20;22.90;74.30
8666;DHT22;4370;48.916;8.380;2023-07-09T21:02:48;22.80;87.20
8666;DHT22;4370;48.916;8.380;2023-07-09T21:05:17;22.70;76.60
8666;DHT22;4370;48.916;8.380;2023-07-09T21:07:45;22.60;95.80
8666;DHT22;4370;48.916;8.380;2023-07-09T21:10:21;22.40;81.20
8666;DHT22;4370;48.916;8.380;2023-07-09T21:12:48;22.50;91.20
8666;DHT22;4370;48.916;8.380;2023-07-09T21:15:23;22.20;82.70
8666;DHT22;4370;48.916;8.380;2023-07-09T21:20:18;22.10;86.00
8666;DHT22;4370;48.916;8.380;2023-07-09T21:25:20;22.00;88.60
8666;DHT22;4370;48.916;8.380;2023-07-09T21:27:47;21.90;99.90
8666;DHT22;4370;48.916;8.380;2023-07-09T21:32:39;21.90;99.90
8666;DHT22;4370;48.916;8.380;2023-07-09T21:35:19;21.90;99.70
8666;DHT22;4370;48.916;8.380;2023-07-09T21:40:30;21.90;89.40
8666;DHT22;4370;48.916;8.380;2023-07-09T21:42:58;21.80;99.90
8666;DHT22;4370;48.916;8.380;2023-07-09T21:45:36;21.80;99.90